createdAt,value
2022-08-01T00:02:56.527Z,46.11
2022-08-01T00:07:59.313Z,46.34
2022-08-01T00:13:02.016Z,46.58
2022-08-01T00:18:06.450Z,46.34
2022-08-01T00:23:09.218Z,46.36
2022-08-01T00:28:12.583Z,46.09
2022-08-01T00:33:16.741Z,46.02
2022-08-01T00:38:19.514Z,45.98
2022-08-01T00:43:22.249Z,45.95
2022-08-01T00:48:26.438Z,45.85
2022-08-01T00:53:50.658Z,46.19
2022-08-01T00:58:52.192Z,46.09
2022-08-01T01:03:59.079Z,46.42
2022-08-01T01:09:17.218Z,46.38
2022-08-01T01:14:25.693Z,46.85
2022-08-01T01:19:32.304Z,46.91
2022-08-01T01:24:40.435Z,46.91
2022-08-01T01:30:00.437Z,47.19
2022-08-01T01:35:04.537Z,47.37
2022-08-01T01:40:08.985Z,47.29
2022-08-01T01:45:13.067Z,47.53
2022-08-01T01:50:15.968Z,47.82
2022-08-01T01:55:18.769Z,47.63
2022-08-01T02:00:23.103Z,47.66
2022-08-01T02:05:25.893Z,47.83
2022-08-01T02:10:29.306Z,47.91
2022-08-01T02:15:34.014Z,47.80
2022-08-01T02:20:36.864Z,48.19
2022-08-01T02:26:10.626Z,47.81
2022-08-01T02:31:07.116Z,47.91
2022-08-01T02:36:32.468Z,48.03
2022-08-01T02:41:32.858Z,48.08
2022-08-01T02:46:39.534Z,48.19
2022-08-01T02:51:42.282Z,48.21
2022-08-01T02:56:45.052Z,48.32
2022-08-01T03:01:49.547Z,48.24
2022-08-01T03:06:53.043Z,48.14
2022-08-01T03:11:56.030Z,48.34
2022-08-01T03:17:00.224Z,48.57
2022-08-01T03:22:04.519Z,50.17
2022-08-01T03:27:07.969Z,55.07
2022-08-01T03:32:12.412Z,56.88
2022-08-01T03:37:17.679Z,57.37
2022-08-01T03:42:22.689Z,58.31
2022-08-01T03:47:28.396Z,58.88
2022-08-01T03:52:31.468Z,59.07
2022-08-01T03:57:36.132Z,59.62
2022-08-01T04:02:40.926Z,60.29
2022-08-01T04:07:47.598Z,61.15
2022-08-01T04:12:50.358Z,62.21
2022-08-01T04:17:55.070Z,62.59
2022-08-01T04:22:57.780Z,63.25
2022-08-01T04:28:00.472Z,63.88
2022-08-01T04:33:06.073Z,64.38
2022-08-01T04:38:08.961Z,65.10
2022-08-01T04:43:12.948Z,65.92
2022-08-01T04:48:20.263Z,67.47
2022-08-01T04:53:26.987Z,68.75
2022-08-01T04:58:29.785Z,68.76
2022-08-01T05:03:38.669Z,68.61
2022-08-01T05:08:42.368Z,67.84
2022-08-01T05:13:45.061Z,67.33
2022-08-01T05:18:53.102Z,67.23
2022-08-01T05:23:55.936Z,68.42
2022-08-01T05:28:58.875Z,68.45
2022-08-01T05:34:03.019Z,68.82
2022-08-01T05:39:05.813Z,68.54
2022-08-01T05:44:08.681Z,69.64
2022-08-01T05:49:12.908Z,69.86
2022-08-01T05:54:15.846Z,70.44
2022-08-01T05:59:18.630Z,70.52
2022-08-01T06:04:22.765Z,69.85
2022-08-01T06:09:25.487Z,70.12
2022-08-01T06:14:28.231Z,69.83
2022-08-01T06:19:32.367Z,69.79
2022-08-01T06:24:35.185Z,69.36
2022-08-01T06:29:37.978Z,69.55
2022-08-01T06:34:42.103Z,69.70
2022-08-01T06:39:46.000Z,69.80
2022-08-01T06:44:48.790Z,69.49
2022-08-01T06:49:53.030Z,70.08
2022-08-01T06:54:55.699Z,70.12
2022-08-01T06:59:58.443Z,69.97
2022-08-01T07:05:03.839Z,70.21
2022-08-01T07:10:07.666Z,70.20
2022-08-01T07:15:11.340Z,70.18
2022-08-01T07:20:16.430Z,69.08
2022-08-01T07:25:19.515Z,69.65
2022-08-01T07:30:22.309Z,69.03
2022-08-01T07:35:26.431Z,69.14
2022-08-01T07:40:29.363Z,68.85
2022-08-01T07:45:32.211Z,69.08
2022-08-01T07:50:36.433Z,69.10
2022-08-01T07:55:39.208Z,67.20
2022-08-01T08:00:41.936Z,66.34
2022-08-01T08:05:58.461Z,67.04
2022-08-01T08:11:02.745Z,66.49
2022-08-01T08:16:05.874Z,65.95
2022-08-01T08:21:09.936Z,69.01
2022-08-01T08:26:12.755Z,71.68
2022-08-01T08:31:50.915Z,72.55
2022-08-01T08:36:39.619Z,71.46
2022-08-01T08:41:50.809Z,72.57
2022-08-01T08:46:53.953Z,71.71
2022-08-01T08:52:01.799Z,72.73
2022-08-01T08:57:04.889Z,70.11
2022-08-01T09:02:08.878Z,70.64
2022-08-01T09:07:14.982Z,68.74
2022-08-01T09:12:18.693Z,68.27
2022-08-01T09:17:21.852Z,66.57
2022-08-01T09:22:26.280Z,64.98
2022-08-01T09:27:29.059Z,64.35
2022-08-01T09:32:35.716Z,64.14
2022-08-01T09:37:40.370Z,61.73
2022-08-01T09:42:52.741Z,60.72
2022-08-01T09:47:55.484Z,60.88
2022-08-01T09:52:59.631Z,59.16
2022-08-01T09:58:02.732Z,59.87
2022-08-01T10:03:21.092Z,56.38
2022-08-01T10:08:26.674Z,56.90
2022-08-01T10:13:36.641Z,57.53
2022-08-01T10:18:39.743Z,57.61
2022-08-01T10:23:43.876Z,56.85
2022-08-01T10:28:46.705Z,56.42
2022-08-01T10:33:51.312Z,57.54
2022-08-01T10:38:57.675Z,56.85
2022-08-01T10:44:02.421Z,56.88
2022-08-01T10:49:06.659Z,55.58
2022-08-01T10:54:12.575Z,54.99
2022-08-01T10:59:16.858Z,55.04
2022-08-01T11:04:35.579Z,54.55
2022-08-01T11:09:46.958Z,53.27
2022-08-01T11:15:29.902Z,53.36
2022-08-01T11:20:42.127Z,52.88
2022-08-01T11:26:10.909Z,53.38
2022-08-01T11:31:27.771Z,52.14
2022-08-01T11:36:55.857Z,52.81
2022-08-01T11:41:55.788Z,51.96
2022-08-01T11:47:01.198Z,51.27
2022-08-01T11:52:06.590Z,51.41
2022-08-01T11:57:11.623Z,51.28
2022-08-01T12:02:30.690Z,50.45
2022-08-01T12:07:34.301Z,51.09
2022-08-01T12:12:39.252Z,51.04
2022-08-01T12:17:45.844Z,51.70
2022-08-01T12:23:02.972Z,51.85
2022-08-01T12:28:07.894Z,51.88
2022-08-01T12:33:11.531Z,51.91
2022-08-01T12:38:16.248Z,52.56
2022-08-01T12:43:28.615Z,52.58
2022-08-01T12:48:32.137Z,51.74
2022-08-01T12:53:40.256Z,50.63
2022-08-01T12:58:45.718Z,51.40
2022-08-01T13:03:59.333Z,50.97
2022-08-01T13:09:07.063Z,51.37
2022-08-01T13:14:11.562Z,51.16
2022-08-01T13:19:14.829Z,50.98
2022-08-01T13:24:17.886Z,50.84
2022-08-01T13:29:23.928Z,50.25
2022-08-01T13:34:32.032Z,50.78
2022-08-01T13:39:45.318Z,50.68
2022-08-01T13:44:49.609Z,50.37
2022-08-01T13:49:52.448Z,50.10
2022-08-01T13:54:55.654Z,49.87
2022-08-01T14:00:00.840Z,49.69
2022-08-01T14:05:03.662Z,49.88
2022-08-01T14:10:19.557Z,49.71
2022-08-01T14:15:38.712Z,49.39
2022-08-01T14:20:42.532Z,47.77
2022-08-01T14:26:00.477Z,48.20
2022-08-01T14:31:08.598Z,47.46
2022-08-01T14:36:31.053Z,48.07
2022-08-01T14:41:34.297Z,49.34
2022-08-01T14:46:38.521Z,49.37
2022-08-01T14:52:00.257Z,49.48
2022-08-01T14:57:04.194Z,49.51
2022-08-01T15:02:10.647Z,49.10
2022-08-01T15:07:13.585Z,47.80
2022-08-01T15:12:16.565Z,47.56
2022-08-01T15:17:21.472Z,48.04
2022-08-01T15:22:25.902Z,47.68
2022-08-01T15:27:29.048Z,47.29
2022-08-01T15:32:33.205Z,46.67
2022-08-01T15:37:40.837Z,47.15
2022-08-01T15:42:46.155Z,47.15
2022-08-01T15:47:50.423Z,47.17
2022-08-01T15:52:53.162Z,47.19
2022-08-01T15:57:56.424Z,47.73
2022-08-01T16:03:00.512Z,47.64
2022-08-01T16:08:03.363Z,47.53
2022-08-01T16:13:07.085Z,47.52
2022-08-01T16:18:13.588Z,47.49
2022-08-01T16:23:16.312Z,47.56
2022-08-01T16:28:19.291Z,47.14
2022-08-01T16:33:46.965Z,46.92
2022-08-01T16:38:46.357Z,46.83
2022-08-01T16:43:53.318Z,47.06
2022-08-01T16:48:58.959Z,46.72
2022-08-01T16:54:02.216Z,46.75
2022-08-01T16:59:04.943Z,46.57
2022-08-01T17:04:09.004Z,46.66
2022-08-01T17:09:11.766Z,46.16
2022-08-01T17:14:14.505Z,45.88
2022-08-01T17:19:18.927Z,44.02
2022-08-01T17:24:21.671Z,44.52
2022-08-01T17:29:24.567Z,44.82
2022-08-01T17:34:28.727Z,44.82
2022-08-01T17:39:38.631Z,44.40
2022-08-01T17:44:48.970Z,45.17
2022-08-01T17:49:55.140Z,45.19
2022-08-01T17:54:58.843Z,44.93
2022-08-01T18:00:01.673Z,45.43
2022-08-01T18:05:09.612Z,45.27
2022-08-01T18:10:13.674Z,44.28
2022-08-01T18:15:24.541Z,44.43
2022-08-01T18:20:31.361Z,44.48
2022-08-01T18:25:34.398Z,43.91
2022-08-01T18:30:37.137Z,44.25
2022-08-01T18:35:51.798Z,44.85
2022-08-01T18:40:55.873Z,44.28
2022-08-01T18:45:58.903Z,45.12
2022-08-01T18:51:03.022Z,44.43
2022-08-01T18:56:11.682Z,44.56
2022-08-01T19:01:15.039Z,44.40
2022-08-01T19:06:19.313Z,44.15
2022-08-01T19:11:22.144Z,44.59
2022-08-01T19:16:25.019Z,44.35
2022-08-01T19:21:29.135Z,44.72
2022-08-01T19:26:31.856Z,44.88
2022-08-01T19:31:34.603Z,45.49
2022-08-01T19:36:38.717Z,45.57
2022-08-01T19:41:41.630Z,46.11
2022-08-01T19:46:44.635Z,46.11
2022-08-01T19:51:50.165Z,46.26
2022-08-01T19:56:52.923Z,46.25
2022-08-01T20:01:56.738Z,46.49
2022-08-01T20:07:00.823Z,46.46
2022-08-01T20:12:03.625Z,46.29
2022-08-01T20:17:07.468Z,45.63
2022-08-01T20:22:11.516Z,45.75
2022-08-01T20:27:15.601Z,46.15
2022-08-01T20:32:18.649Z,46.67
2022-08-01T20:38:05.391Z,46.08
2022-08-01T20:42:45.736Z,46.17
2022-08-01T20:47:48.665Z,46.33
2022-08-01T20:52:52.720Z,46.45
2022-08-01T20:57:55.480Z,46.50
2022-08-01T21:03:02.665Z,46.62
2022-08-01T21:08:09.270Z,46.69
2022-08-01T21:13:20.599Z,46.25
2022-08-01T21:18:26.107Z,46.38
2022-08-01T21:23:32.513Z,46.57
2022-08-01T21:28:35.278Z,46.87
2022-08-01T21:33:38.114Z,46.49
2022-08-01T21:39:02.506Z,46.29
2022-08-01T21:44:05.637Z,46.42
2022-08-01T21:49:08.846Z,45.98
2022-08-01T21:54:17.635Z,46.75
2022-08-01T21:59:23.741Z,46.82
2022-08-01T22:04:29.191Z,46.22
2022-08-01T22:09:33.481Z,46.04
2022-08-01T22:14:36.790Z,46.11
2022-08-01T22:19:45.565Z,46.16
2022-08-01T22:24:50.821Z,45.98
2022-08-01T22:29:57.401Z,46.22
2022-08-01T22:35:00.579Z,46.14
2022-08-01T22:40:06.778Z,46.39
2022-08-01T22:45:12.544Z,46.45
2022-08-01T22:50:18.219Z,46.55
2022-08-01T22:55:58.684Z,46.56
2022-08-01T23:01:02.596Z,46.75
2022-08-01T23:06:07.975Z,46.43
2022-08-01T23:11:12.087Z,46.75
2022-08-01T23:16:17.547Z,47.23
2022-08-01T23:21:20.479Z,47.05
2022-08-01T23:26:24.604Z,47.45
2022-08-01T23:32:02.794Z,48.21
2022-08-01T23:36:50.559Z,47.91
2022-08-01T23:42:07.798Z,48.32
2022-08-01T23:47:10.799Z,48.66
2022-08-01T23:52:20.810Z,48.97
2022-08-01T23:57:25.880Z,48.84
